createdAt,value
2023-02-01T00:01:09.792Z,47.55
2023-02-01T00:03:37.899Z,53.42
2023-02-01T00:06:05.846Z,48.50
2023-02-01T00:08:33.331Z,51.90
2023-02-01T00:11:08.787Z,53.22
2023-02-01T00:13:40.184Z,42.65
2023-02-01T00:16:17.347Z,46.55
2023-02-01T00:18:47.140Z,46.85
2023-02-01T00:21:17.532Z,51.83
2023-02-01T00:23:46.352Z,45.72
2023-02-01T00:26:36.268Z,49.42
2023-02-01T00:29:08.231Z,43.65
2023-02-01T00:31:35.671Z,50.15
2023-02-01T00:34:03.475Z,43.10
2023-02-01T00:36:30.955Z,50.13
2023-02-01T00:38:58.363Z,42.60
2023-02-01T00:41:26.837Z,44.38
2023-02-01T00:43:54.067Z,46.97
2023-02-01T00:46:22.777Z,45.35
2023-02-01T00:51:25.122Z,42.05
2023-02-01T00:53:52.488Z,41.28
2023-02-01T00:56:20.726Z,44.25
2023-02-01T00:58:48.313Z,41.15
2023-02-01T01:01:24.850Z,48.00
2023-02-01T01:03:59.833Z,44.78
2023-02-01T01:09:05.275Z,45.92
2023-02-01T01:11:37.837Z,44.05
2023-02-01T01:14:10.075Z,39.47
2023-02-01T01:16:37.587Z,37.38
2023-02-01T01:19:05.095Z,38.88
2023-02-01T01:21:32.930Z,37.42
2023-02-01T01:24:00.350Z,39.88
2023-02-01T01:26:30.817Z,41.10
2023-02-01T01:29:00.260Z,36.85
2023-02-01T01:31:28.400Z,42.15
2023-02-01T01:33:59.611Z,37.92
2023-02-01T01:36:28.720Z,35.58
2023-02-01T01:38:56.007Z,39.15
2023-02-01T01:41:32.055Z,37.33
2023-02-01T01:44:27.652Z,33.72
2023-02-01T01:46:55.116Z,36.35
2023-02-01T01:49:27.069Z,34.65
2023-02-01T01:52:02.518Z,36.17
2023-02-01T01:54:42.174Z,33.85
2023-02-01T01:57:39.460Z,37.47
2023-02-01T02:00:18.813Z,34.08
2023-02-01T02:02:50.180Z,35.83
2023-02-01T02:05:19.437Z,36.58
2023-02-01T02:07:50.507Z,36.08
2023-02-01T02:10:18.430Z,40.22
2023-02-01T02:12:48.956Z,37.65
2023-02-01T02:15:18.140Z,37.83
2023-02-01T02:18:26.880Z,34.55
2023-02-01T02:21:43.135Z,33.80
2023-02-01T02:24:36.010Z,34.17
2023-02-01T02:27:25.750Z,35.75
2023-02-01T02:30:48.119Z,36.42
2023-02-01T02:33:57.101Z,29.27
2023-02-01T02:37:25.716Z,26.63
2023-02-01T02:40:16.205Z,38.10
2023-02-01T02:43:51.907Z,31.55
2023-02-01T02:46:59.803Z,27.50
2023-02-01T02:50:10.932Z,30.70
2023-02-01T02:53:10.324Z,34.75
2023-02-01T02:55:39.158Z,29.90
2023-02-01T02:58:26.859Z,33.85
2023-02-01T03:01:14.576Z,33.65
2023-02-01T03:04:00.868Z,29.88
2023-02-01T03:06:28.623Z,31.48
2023-02-01T03:08:59.445Z,34.92
2023-02-01T03:11:50.297Z,34.17
2023-02-01T03:14:21.761Z,33.20
2023-02-01T03:16:59.788Z,33.45
2023-02-01T03:19:36.783Z,33.58
2023-02-01T03:22:09.945Z,32.28
2023-02-01T03:24:53.005Z,27.02
2023-02-01T03:27:37.084Z,28.08
2023-02-01T03:30:24.136Z,29.88
2023-02-01T03:33:02.633Z,33.03
2023-02-01T03:36:04.099Z,30.88
2023-02-01T03:39:10.301Z,31.13
2023-02-01T03:41:56.843Z,31.20
2023-02-01T03:45:19.422Z,34.38
2023-02-01T03:47:54.459Z,33.25
2023-02-01T03:50:24.863Z,34.30
2023-02-01T03:53:03.756Z,34.35
2023-02-01T03:55:33.765Z,34.35
2023-02-01T03:58:19.489Z,32.97
2023-02-01T04:00:58.757Z,33.78
2023-02-01T04:03:28.359Z,40.50
2023-02-01T04:05:56.033Z,39.28
2023-02-01T04:08:27.442Z,29.70
2023-02-01T04:10:54.683Z,32.10
2023-02-01T04:13:21.930Z,30.17
2023-02-01T04:15:50.810Z,30.33
2023-02-01T04:18:18.140Z,32.70
2023-02-01T04:20:45.948Z,27.75
2023-02-01T04:23:13.266Z,31.30
2023-02-01T04:25:40.520Z,27.58
2023-02-01T04:28:08.547Z,30.50
2023-02-01T04:30:35.936Z,29.30
2023-02-01T04:33:06.229Z,26.38
2023-02-01T04:35:34.272Z,26.20
2023-02-01T04:38:02.047Z,26.98
2023-02-01T04:40:29.308Z,26.48
2023-02-01T04:42:56.640Z,27.85
2023-02-01T04:45:23.799Z,26.95
2023-02-01T04:47:56.073Z,24.02
2023-02-01T04:50:24.893Z,29.33
2023-02-01T04:55:19.475Z,23.90
2023-02-01T04:57:46.732Z,26.65
2023-02-01T05:00:14.862Z,25.50
2023-02-01T05:02:42.056Z,28.60
2023-02-01T05:05:09.917Z,24.42
2023-02-01T05:07:37.161Z,25.85
2023-02-01T05:10:04.892Z,26.00
2023-02-01T05:12:50.956Z,28.05
2023-02-01T05:15:18.248Z,28.23
2023-02-01T05:17:45.458Z,25.35
2023-02-01T05:20:13.011Z,22.08
2023-02-01T05:22:40.230Z,23.42
2023-02-01T05:25:08.563Z,26.75
2023-02-01T05:27:36.006Z,29.27
2023-02-01T05:30:06.469Z,25.85
2023-02-01T05:32:34.014Z,25.52
2023-02-01T05:35:01.669Z,28.65
2023-02-01T05:37:29.283Z,26.23
2023-02-01T05:39:56.500Z,26.95
2023-02-01T05:42:23.755Z,34.45
2023-02-01T05:44:50.993Z,47.53
2023-02-01T05:47:18.635Z,41.80
2023-02-01T05:49:45.869Z,53.35
2023-02-01T05:52:13.179Z,40.28
2023-02-01T05:54:40.504Z,36.10
2023-02-01T05:57:09.399Z,27.77
2023-02-01T05:59:41.946Z,20.70
2023-02-01T06:02:10.949Z,26.85
2023-02-01T06:04:38.876Z,24.55
2023-02-01T06:07:08.659Z,25.88
2023-02-01T06:09:37.377Z,27.65
2023-02-01T06:12:05.634Z,21.05
2023-02-01T06:14:32.871Z,23.70
2023-02-01T06:17:00.089Z,25.13
2023-02-01T06:19:27.487Z,23.05
2023-02-01T06:21:55.056Z,24.88
2023-02-01T06:24:23.349Z,24.95
2023-02-01T06:26:50.653Z,23.52
2023-02-01T06:29:17.964Z,30.77
2023-02-01T06:31:45.270Z,26.50
2023-02-01T06:34:12.503Z,26.65
2023-02-01T06:36:41.016Z,25.33
2023-02-01T06:39:08.255Z,22.73
2023-02-01T06:41:35.804Z,31.08
2023-02-01T06:44:03.217Z,25.52
2023-02-01T06:46:30.586Z,25.38
2023-02-01T06:48:57.811Z,30.60
2023-02-01T06:51:29.307Z,25.38
2023-02-01T06:53:57.573Z,29.40
2023-02-01T06:56:25.703Z,26.27
2023-02-01T06:58:53.122Z,26.77
2023-02-01T07:01:21.084Z,36.42
2023-02-01T07:03:52.129Z,27.83
2023-02-01T07:06:20.505Z,30.05
2023-02-01T07:08:47.952Z,27.73
2023-02-01T07:11:17.913Z,21.95
2023-02-01T07:13:46.231Z,29.38
2023-02-01T07:16:20.762Z,25.45
2023-02-01T07:18:50.185Z,25.20
2023-02-01T07:21:17.647Z,23.30
2023-02-01T07:23:44.964Z,34.33
2023-02-01T07:26:14.789Z,24.75
2023-02-01T07:28:42.432Z,28.77
2023-02-01T07:31:14.542Z,33.38
2023-02-01T07:33:42.975Z,28.48
2023-02-01T07:36:16.226Z,27.08
2023-02-01T07:38:44.459Z,21.33
2023-02-01T07:41:11.970Z,31.48
2023-02-01T07:43:39.506Z,22.83
2023-02-01T07:46:08.168Z,25.73
2023-02-01T07:48:35.492Z,26.60
2023-02-01T07:51:12.032Z,26.50
2023-02-01T07:53:40.112Z,22.92
2023-02-01T07:56:20.360Z,28.73
2023-02-01T07:58:53.506Z,24.35
2023-02-01T08:01:26.010Z,26.02
2023-02-01T08:04:03.163Z,23.45
2023-02-01T08:06:35.489Z,20.83
2023-02-01T08:09:04.388Z,21.08
2023-02-01T08:14:00.726Z,26.77
2023-02-01T08:16:28.303Z,32.03
2023-02-01T08:18:55.931Z,24.30
2023-02-01T08:21:37.284Z,27.48
2023-02-01T08:24:11.065Z,22.67
2023-02-01T08:26:38.761Z,23.75
2023-02-01T08:29:11.446Z,24.92
2023-02-01T08:31:41.663Z,22.17
2023-02-01T08:34:10.579Z,31.08
2023-02-01T08:39:09.932Z,31.52
2023-02-01T08:41:37.491Z,33.03
2023-02-01T08:44:06.395Z,22.33
2023-02-01T08:46:33.655Z,26.83
2023-02-01T08:49:01.922Z,27.67
2023-02-01T08:51:29.289Z,25.02
2023-02-01T08:53:57.606Z,28.67
2023-02-01T08:56:25.925Z,25.60
2023-02-01T08:58:53.272Z,33.95
2023-02-01T09:01:20.834Z,25.30
2023-02-01T09:03:48.328Z,26.73
2023-02-01T09:06:17.220Z,27.75
2023-02-01T09:08:45.463Z,29.25
2023-02-01T09:11:18.338Z,29.95
2023-02-01T09:13:46.611Z,24.92
2023-02-01T09:16:14.304Z,26.23
2023-02-01T09:18:50.763Z,21.63
2023-02-01T09:21:23.838Z,24.00
2023-02-01T09:23:53.132Z,27.83
2023-02-01T09:26:26.464Z,27.30
2023-02-01T09:28:58.718Z,27.35
2023-02-01T09:31:26.254Z,27.08
2023-02-01T09:33:53.551Z,24.73
2023-02-01T09:36:20.936Z,28.50
2023-02-01T09:38:52.735Z,26.50
2023-02-01T09:42:15.399Z,30.15
2023-02-01T09:45:09.430Z,27.95
2023-02-01T09:47:40.685Z,22.48
2023-02-01T09:50:24.786Z,26.42
2023-02-01T09:53:07.871Z,26.40
2023-02-01T09:55:52.061Z,27.55
2023-02-01T09:58:42.969Z,29.33
2023-02-01T10:01:24.683Z,25.02
2023-02-01T10:04:03.264Z,24.73
2023-02-01T10:07:17.468Z,29.60
2023-02-01T10:10:08.600Z,23.75
2023-02-01T10:13:22.600Z,17.02
2023-02-01T10:16:46.931Z,22.35
2023-02-01T10:19:48.025Z,24.85
2023-02-01T10:23:00.324Z,20.15
2023-02-01T10:26:02.232Z,21.52
2023-02-01T10:28:31.468Z,21.55
2023-02-01T10:31:00.010Z,18.73
2023-02-01T10:33:44.042Z,20.77
2023-02-01T10:36:23.395Z,18.00
2023-02-01T10:38:51.127Z,17.88
2023-02-01T10:41:23.408Z,15.27
2023-02-01T10:43:57.236Z,14.50
2023-02-01T10:46:25.361Z,16.55
2023-02-01T10:48:56.928Z,11.90
2023-02-01T10:52:03.595Z,12.38
2023-02-01T10:54:39.379Z,11.90
2023-02-01T10:57:30.594Z,14.32
2023-02-01T10:59:57.954Z,12.20
2023-02-01T11:02:34.423Z,13.13
2023-02-01T11:05:11.496Z,13.27
2023-02-01T11:07:48.063Z,11.55
2023-02-01T11:10:42.759Z,11.82
2023-02-01T11:13:19.941Z,11.50
2023-02-01T11:15:57.323Z,11.30
2023-02-01T11:18:37.763Z,11.15
2023-02-01T11:21:08.169Z,10.50
2023-02-01T11:23:45.976Z,13.55
2023-02-01T11:26:29.210Z,13.00
2023-02-01T11:29:14.674Z,12.45
2023-02-01T11:31:44.014Z,11.27
2023-02-01T11:34:25.679Z,13.18
2023-02-01T11:36:56.422Z,12.65
2023-02-01T11:39:36.856Z,13.88
2023-02-01T11:42:18.116Z,11.15
2023-02-01T11:44:48.269Z,10.65
2023-02-01T11:47:32.810Z,12.48
2023-02-01T11:50:06.029Z,11.20
2023-02-01T11:52:45.173Z,9.05
2023-02-01T11:55:30.074Z,10.25
2023-02-01T11:58:44.847Z,14.57
2023-02-01T12:01:49.227Z,9.23
2023-02-01T12:04:45.984Z,8.48
2023-02-01T12:07:24.328Z,13.18
2023-02-01T12:10:58.051Z,8.15
2023-02-01T12:14:19.773Z,11.85
2023-02-01T12:17:34.747Z,12.13
2023-02-01T12:21:11.534Z,7.93
2023-02-01T12:24:17.487Z,8.02
2023-02-01T12:27:35.134Z,7.97
2023-02-01T12:30:33.930Z,8.27
2023-02-01T12:33:42.763Z,7.72
2023-02-01T12:37:07.677Z,8.57
2023-02-01T12:40:26.526Z,9.57
2023-02-01T12:43:11.934Z,7.18
2023-02-01T12:46:05.436Z,9.15
2023-02-01T12:48:55.865Z,9.23
2023-02-01T12:51:38.567Z,8.10
2023-02-01T12:54:31.882Z,8.57
2023-02-01T12:57:08.256Z,10.10
2023-02-01T12:59:50.070Z,11.32
2023-02-01T13:03:10.036Z,8.65
2023-02-01T13:06:15.166Z,10.35
2023-02-01T13:09:11.100Z,11.40
2023-02-01T13:11:46.445Z,9.00
2023-02-01T13:14:41.154Z,6.65
2023-02-01T13:17:32.733Z,8.50
2023-02-01T13:20:38.613Z,11.07
2023-02-01T13:23:29.004Z,10.05
2023-02-01T13:25:56.626Z,9.90
2023-02-01T13:28:50.802Z,11.30
2023-02-01T13:31:55.555Z,6.57
2023-02-01T13:34:50.944Z,9.15
2023-02-01T13:37:59.965Z,9.15
2023-02-01T13:41:04.119Z,10.15
2023-02-01T13:43:32.994Z,6.43
2023-02-01T13:46:09.598Z,9.00
2023-02-01T13:49:04.074Z,8.02
2023-02-01T13:51:46.891Z,10.32
2023-02-01T13:54:40.981Z,8.13
2023-02-01T13:57:39.037Z,7.95
2023-02-01T14:00:45.475Z,10.05
2023-02-01T14:03:44.615Z,10.05
2023-02-01T14:09:20.638Z,6.67
2023-02-01T14:11:54.783Z,10.88
2023-02-01T14:14:21.893Z,7.95
2023-02-01T14:16:55.003Z,7.72
2023-02-01T14:19:28.752Z,10.52
2023-02-01T14:22:20.470Z,9.32
2023-02-01T14:24:58.016Z,8.20
2023-02-01T14:27:30.722Z,12.65
2023-02-01T14:30:13.057Z,9.30
2023-02-01T14:32:45.232Z,7.75
2023-02-01T14:35:28.876Z,8.05
2023-02-01T14:38:07.967Z,8.45
2023-02-01T14:40:36.857Z,13.05
2023-02-01T14:43:04.209Z,9.07
2023-02-01T14:45:34.390Z,7.65
2023-02-01T14:48:07.940Z,15.07
2023-02-01T14:50:43.814Z,8.05
2023-02-01T14:53:14.369Z,8.10
2023-02-01T14:55:46.679Z,6.35
2023-02-01T14:58:35.664Z,9.00
2023-02-01T15:01:56.251Z,7.88
2023-02-01T15:04:28.524Z,6.85
2023-02-01T15:07:05.756Z,7.93
2023-02-01T15:09:47.542Z,8.13
2023-02-01T15:12:18.701Z,7.10
2023-02-01T15:15:05.158Z,9.48
2023-02-01T15:17:35.039Z,16.30
2023-02-01T15:20:19.085Z,8.38
2023-02-01T15:23:17.483Z,6.88
2023-02-01T15:25:47.928Z,8.73
2023-02-01T15:28:27.694Z,5.95
2023-02-01T15:31:09.285Z,9.52
2023-02-01T15:33:36.777Z,7.20
2023-02-01T15:36:07.049Z,8.63
2023-02-01T15:38:43.559Z,10.85
2023-02-01T15:41:20.422Z,10.35
2023-02-01T15:44:10.529Z,6.22
2023-02-01T15:46:44.816Z,9.95
2023-02-01T15:49:41.454Z,12.20
2023-02-01T15:52:38.282Z,6.78
2023-02-01T15:55:19.720Z,8.48
2023-02-01T15:57:47.829Z,9.30
2023-02-01T16:00:24.270Z,7.03
2023-02-01T16:03:06.128Z,7.38
2023-02-01T16:05:45.797Z,7.97
2023-02-01T16:08:26.996Z,10.70
2023-02-01T16:11:23.996Z,9.07
2023-02-01T16:13:51.273Z,8.25
2023-02-01T16:16:18.663Z,9.00
2023-02-01T16:18:46.266Z,10.73
2023-02-01T16:21:13.758Z,9.98
2023-02-01T16:23:41.250Z,8.65
2023-02-01T16:26:08.515Z,12.55
2023-02-01T16:28:35.839Z,12.43
2023-02-01T16:31:03.623Z,11.95
2023-02-01T16:33:31.294Z,7.82
2023-02-01T16:36:01.261Z,19.73
2023-02-01T16:38:28.994Z,9.65
2023-02-01T16:40:58.531Z,10.88
2023-02-01T16:43:27.268Z,9.68
2023-02-01T16:46:01.036Z,10.80
2023-02-01T16:48:31.638Z,11.30
2023-02-01T16:51:10.447Z,12.30
2023-02-01T16:53:53.169Z,11.35
2023-02-01T16:56:26.092Z,10.55
2023-02-01T16:58:55.536Z,10.63
2023-02-01T17:01:23.200Z,32.45
2023-02-01T17:03:51.064Z,13.68
2023-02-01T17:06:25.265Z,11.95
2023-02-01T17:08:58.991Z,13.00
2023-02-01T17:11:28.132Z,11.68
2023-02-01T17:14:19.780Z,19.27
2023-02-01T17:16:50.159Z,17.42
2023-02-01T17:19:24.622Z,23.52
2023-02-01T17:21:56.950Z,30.73
2023-02-01T17:24:39.192Z,33.30
2023-02-01T17:27:15.008Z,32.00
2023-02-01T17:29:43.685Z,26.05
2023-02-01T17:34:52.583Z,28.10
2023-02-01T17:37:30.214Z,28.10
2023-02-01T17:39:58.171Z,16.67
2023-02-01T17:42:28.565Z,21.85
2023-02-01T17:45:22.600Z,12.27
2023-02-01T17:47:50.176Z,15.93
2023-02-01T17:50:17.794Z,15.85
2023-02-01T17:52:45.168Z,18.73
2023-02-01T17:55:23.346Z,22.08
2023-02-01T17:57:51.356Z,17.95
2023-02-01T18:00:20.596Z,16.83
2023-02-01T18:02:48.203Z,14.85
2023-02-01T18:05:27.582Z,17.52
2023-02-01T18:07:55.095Z,18.15
2023-02-01T18:10:22.456Z,18.60
2023-02-01T18:12:49.706Z,15.43
2023-02-01T18:15:24.876Z,15.35
2023-02-01T18:17:52.619Z,15.73
2023-02-01T18:20:24.930Z,15.50
2023-02-01T18:22:52.696Z,16.85
2023-02-01T18:25:26.098Z,14.00
2023-02-01T18:27:57.142Z,16.30
2023-02-01T18:30:30.991Z,14.43
2023-02-01T18:32:58.715Z,13.73
2023-02-01T18:35:33.935Z,14.18
2023-02-01T18:38:01.297Z,15.73
2023-02-01T18:40:58.119Z,19.42
2023-02-01T18:43:26.616Z,16.23
2023-02-01T18:45:55.030Z,13.00
2023-02-01T18:48:22.971Z,16.20
2023-02-01T18:50:57.706Z,16.35
2023-02-01T18:53:27.565Z,20.50
2023-02-01T18:55:57.587Z,15.52
2023-02-01T18:58:26.473Z,13.20
2023-02-01T19:00:58.045Z,18.92
2023-02-01T19:03:26.896Z,17.88
2023-02-01T19:05:57.682Z,12.82
2023-02-01T19:08:25.767Z,19.52
2023-02-01T19:10:54.586Z,18.88
2023-02-01T19:13:24.520Z,14.98
2023-02-01T19:15:51.984Z,18.80
2023-02-01T19:18:21.784Z,16.42
2023-02-01T19:20:51.767Z,14.55
2023-02-01T19:23:19.345Z,14.80
2023-02-01T19:25:49.325Z,16.70
2023-02-01T19:28:19.301Z,21.33
2023-02-01T19:30:46.771Z,18.40
2023-02-01T19:33:14.075Z,17.15
2023-02-01T19:35:41.714Z,25.25
2023-02-01T19:38:11.302Z,19.40
2023-02-01T19:40:38.719Z,19.77
2023-02-01T19:43:06.112Z,18.20
2023-02-01T19:45:33.436Z,25.73
2023-02-01T19:48:03.223Z,19.70
2023-02-01T19:50:30.851Z,17.83
2023-02-01T19:52:59.536Z,14.52
2023-02-01T19:57:54.213Z,14.25
2023-02-01T20:00:21.749Z,18.08
2023-02-01T20:02:49.330Z,15.20
2023-02-01T20:05:18.140Z,16.50
2023-02-01T20:07:45.483Z,15.60
2023-02-01T20:10:12.821Z,21.15
2023-02-01T20:12:40.465Z,22.90
2023-02-01T20:15:08.376Z,26.55
2023-02-01T20:17:36.467Z,23.10
2023-02-01T20:20:05.117Z,18.77
2023-02-01T20:22:32.646Z,16.33
2023-02-01T20:25:02.391Z,17.48
2023-02-01T20:27:30.921Z,21.23
2023-02-01T20:29:58.161Z,19.75
2023-02-01T20:32:25.535Z,18.67
2023-02-01T20:34:54.271Z,16.98
2023-02-01T20:39:50.147Z,20.48
2023-02-01T20:42:18.946Z,18.02
2023-02-01T20:44:50.544Z,18.05
2023-02-01T20:49:46.955Z,15.80
2023-02-01T20:52:14.378Z,18.38
2023-02-01T20:54:42.637Z,20.08
2023-02-01T20:57:11.654Z,21.85
2023-02-01T20:59:40.606Z,15.15
2023-02-01T21:02:11.814Z,17.25
2023-02-01T21:04:39.510Z,15.63
2023-02-01T21:07:06.853Z,10.77
2023-02-01T21:09:35.088Z,11.45
2023-02-01T21:12:03.927Z,15.40
2023-02-01T21:14:32.778Z,14.05
2023-02-01T21:17:04.058Z,10.70
2023-02-01T21:19:43.480Z,9.65
2023-02-01T21:22:14.947Z,7.72
2023-02-01T21:24:43.137Z,10.38
2023-02-01T21:27:11.908Z,9.10
2023-02-01T21:29:42.186Z,8.32
2023-02-01T21:32:11.157Z,8.98
2023-02-01T21:34:39.946Z,11.40
2023-02-01T21:37:08.794Z,9.57
2023-02-01T21:39:37.541Z,10.52
2023-02-01T21:44:46.246Z,8.82
2023-02-01T21:47:18.516Z,8.57
2023-02-01T21:49:49.032Z,11.13
2023-02-01T21:52:18.844Z,10.32
2023-02-01T21:54:49.115Z,7.18
2023-02-01T21:57:17.923Z,5.95
2023-02-01T21:59:46.152Z,8.40
2023-02-01T22:02:17.266Z,8.60
2023-02-01T22:04:45.157Z,6.63
2023-02-01T22:07:12.734Z,6.97
2023-02-01T22:09:40.851Z,6.82
2023-02-01T22:12:13.474Z,8.23
2023-02-01T22:14:44.698Z,8.43
2023-02-01T22:17:13.316Z,10.02
2023-02-01T22:19:42.398Z,8.93
2023-02-01T22:22:11.647Z,8.20
2023-02-01T22:24:39.014Z,9.10
2023-02-01T22:27:14.398Z,11.18
2023-02-01T22:29:43.563Z,8.75
2023-02-01T22:32:13.759Z,5.63
2023-02-01T22:34:41.263Z,11.15
2023-02-01T22:37:09.522Z,9.25
2023-02-01T22:39:37.845Z,8.52
2023-02-01T22:42:05.608Z,9.98
2023-02-01T22:44:33.059Z,7.78
2023-02-01T22:47:00.226Z,7.22
2023-02-01T22:49:27.499Z,6.72
2023-02-01T22:51:54.770Z,7.43
2023-02-01T22:54:22.508Z,11.02
2023-02-01T22:56:52.255Z,6.68
2023-02-01T22:59:19.996Z,9.90
2023-02-01T23:01:47.340Z,11.02
2023-02-01T23:04:15.452Z,8.30
2023-02-01T23:06:43.085Z,6.43
2023-02-01T23:09:25.133Z,9.63
2023-02-01T23:11:54.711Z,10.57
2023-02-01T23:14:22.220Z,10.40
2023-02-01T23:16:50.243Z,8.52
2023-02-01T23:19:18.472Z,9.00
2023-02-01T23:21:46.128Z,11.50
2023-02-01T23:24:13.572Z,8.60
2023-02-01T23:26:42.381Z,7.18
2023-02-01T23:29:18.435Z,12.27
2023-02-01T23:31:45.906Z,10.75
2023-02-01T23:34:13.118Z,7.55
2023-02-01T23:36:40.472Z,8.93
2023-02-01T23:39:07.735Z,7.68
2023-02-01T23:41:35.187Z,11.00
2023-02-01T23:44:02.441Z,10.88
2023-02-01T23:46:38.440Z,10.88
2023-02-01T23:49:08.912Z,13.43
2023-02-01T23:51:37.234Z,11.05
2023-02-01T23:54:06.111Z,12.05
2023-02-01T23:59:16.851Z,11.20
